sensor_id;sensor_type;location;lat;lon;timestamp;P1;durP1;ratioP1;P2;durP2;ratioP2
50968;SDS011;36982;51.474;7.228;2023-07-16T00:01:44;3.53;;;1.87;;
50968;SDS011;36982;51.474;7.228;2023-07-16T00:04:09;2.90;;;1.60;;
50968;SDS011;36982;51.474;7.228;2023-07-16T00:06:35;3.45;;;2.47;;
50968;SDS011;36982;51.474;7.228;2023-07-16T00:09:00;2.58;;;1.70;;
50968;SDS011;36982;51.474;7.228;2023-07-16T00:11:26;3.35;;;1.73;;
50968;SDS011;36982;51.474;7.228;2023-07-16T00:13:51;1.65;;;1.40;;
50968;SDS011;36982;51.474;7.228;2023-07-16T00:16:17;1.73;;;1.50;;
50968;SDS011;36982;51.474;7.228;2023-07-16T00:18:44;3.25;;;1.60;;
50968;SDS011;36982;51.474;7.228;2023-07-16T00:21:10;2.45;;;1.55;;
50968;SDS011;36982;51.474;7.228;2023-07-16T00:23:35;2.42;;;1.40;;
50968;SDS011;36982;51.474;7.228;2023-07-16T00:26:02;3.37;;;1.52;;
50968;SDS011;36982;51.474;7.228;2023-07-16T00:28:27;2.58;;;1.98;;
50968;SDS011;36982;51.474;7.228;2023-07-16T00:30:54;1.90;;;1.60;;
50968;SDS011;36982;51.474;7.228;2023-07-16T00:33:19;3.60;;;1.70;;
50968;SDS011;36982;51.474;7.228;2023-07-16T00:35:48;3.08;;;1.65;;
50968;SDS011;36982;51.474;7.228;2023-07-16T00:38:16;2.65;;;1.48;;
50968;SDS011;36982;51.474;7.228;2023-07-16T00:40:43;3.75;;;1.67;;
50968;SDS011;36982;51.474;7.228;2023-07-16T00:43:09;3.87;;;1.83;;
50968;SDS011;36982;51.474;7.228;2023-07-16T00:45:35;4.97;;;1.80;;
50968;SDS011;36982;51.474;7.228;2023-07-16T00:48:01;3.72;;;1.75;;
50968;SDS011;36982;51.474;7.228;2023-07-16T00:50:29;2.47;;;1.50;;
50968;SDS011;36982;51.474;7.228;2023-07-16T00:52:58;3.83;;;1.77;;
50968;SDS011;36982;51.474;7.228;2023-07-16T00:55:25;3.05;;;1.62;;
50968;SDS011;36982;51.474;7.228;2023-07-16T00:57:51;3.00;;;1.80;;
50968;SDS011;36982;51.474;7.228;2023-07-16T01:00:17;4.45;;;1.73;;
50968;SDS011;36982;51.474;7.228;2023-07-16T01:02:43;4.60;;;1.80;;
50968;SDS011;36982;51.474;7.228;2023-07-16T01:05:08;2.90;;;1.42;;
50968;SDS011;36982;51.474;7.228;2023-07-16T01:07:34;4.10;;;1.73;;
50968;SDS011;36982;51.474;7.228;2023-07-16T01:10:08;3.03;;;1.62;;
50968;SDS011;36982;51.474;7.228;2023-07-16T01:12:34;4.03;;;1.75;;
50968;SDS011;36982;51.474;7.228;2023-07-16T01:15:01;4.45;;;1.60;;
50968;SDS011;36982;51.474;7.228;2023-07-16T01:17:26;4.53;;;1.85;;
50968;SDS011;36982;51.474;7.228;2023-07-16T01:19:52;3.83;;;1.90;;
50968;SDS011;36982;51.474;7.228;2023-07-16T01:30:35;3.83;;;1.90;;
50968;SDS011;36982;51.474;7.228;2023-07-16T01:33:04;3.67;;;1.50;;
50968;SDS011;36982;51.474;7.228;2023-07-16T01:35:31;3.45;;;1.65;;
50968;SDS011;36982;51.474;7.228;2023-07-16T01:37:58;2.95;;;1.50;;
50968;SDS011;36982;51.474;7.228;2023-07-16T01:40:24;2.57;;;1.87;;
50968;SDS011;36982;51.474;7.228;2023-07-16T01:42:50;3.28;;;1.70;;
50968;SDS011;36982;51.474;7.228;2023-07-16T01:45:15;3.47;;;1.95;;
50968;SDS011;36982;51.474;7.228;2023-07-16T01:50:44;4.77;;;2.00;;
50968;SDS011;36982;51.474;7.228;2023-07-16T01:53:10;2.97;;;1.80;;
50968;SDS011;36982;51.474;7.228;2023-07-16T01:55:35;2.67;;;1.52;;
50968;SDS011;36982;51.474;7.228;2023-07-16T01:58:01;3.60;;;1.73;;
50968;SDS011;36982;51.474;7.228;2023-07-16T02:00:27;3.27;;;1.87;;
50968;SDS011;36982;51.474;7.228;2023-07-16T02:02:52;5.10;;;1.83;;
50968;SDS011;36982;51.474;7.228;2023-07-16T02:05:18;2.15;;;1.80;;
50968;SDS011;36982;51.474;7.228;2023-07-16T02:07:43;4.87;;;1.77;;
50968;SDS011;36982;51.474;7.228;2023-07-16T02:10:09;3.22;;;1.77;;
50968;SDS011;36982;51.474;7.228;2023-07-16T02:12:35;2.43;;;1.40;;
50968;SDS011;36982;51.474;7.228;2023-07-16T02:15:00;2.58;;;1.50;;
50968;SDS011;36982;51.474;7.228;2023-07-16T02:17:26;4.22;;;1.70;;
50968;SDS011;36982;51.474;7.228;2023-07-16T02:19:51;2.97;;;1.67;;
50968;SDS011;36982;51.474;7.228;2023-07-16T02:22:17;3.58;;;1.52;;
50968;SDS011;36982;51.474;7.228;2023-07-16T02:24:43;4.60;;;1.65;;
50968;SDS011;36982;51.474;7.228;2023-07-16T02:27:08;2.45;;;1.58;;
50968;SDS011;36982;51.474;7.228;2023-07-16T02:29:34;3.80;;;1.60;;
50968;SDS011;36982;51.474;7.228;2023-07-16T02:31:59;4.28;;;1.62;;
50968;SDS011;36982;51.474;7.228;2023-07-16T02:34:25;2.58;;;1.40;;
50968;SDS011;36982;51.474;7.228;2023-07-16T02:36:50;2.60;;;1.50;;
50968;SDS011;36982;51.474;7.228;2023-07-16T02:39:16;3.60;;;1.75;;
50968;SDS011;36982;51.474;7.228;2023-07-16T02:41:42;3.55;;;1.77;;
50968;SDS011;36982;51.474;7.228;2023-07-16T02:44:07;3.45;;;1.50;;
50968;SDS011;36982;51.474;7.228;2023-07-16T02:46:33;4.28;;;1.60;;
50968;SDS011;36982;51.474;7.228;2023-07-16T02:48:59;2.78;;;1.52;;
50968;SDS011;36982;51.474;7.228;2023-07-16T02:51:25;4.75;;;1.70;;
50968;SDS011;36982;51.474;7.228;2023-07-16T02:53:50;4.07;;;1.60;;
50968;SDS011;36982;51.474;7.228;2023-07-16T02:56:16;3.37;;;1.90;;
50968;SDS011;36982;51.474;7.228;2023-07-16T02:58:42;4.72;;;1.50;;
50968;SDS011;36982;51.474;7.228;2023-07-16T03:01:07;4.35;;;1.90;;
50968;SDS011;36982;51.474;7.228;2023-07-16T03:03:33;3.47;;;1.90;;
50968;SDS011;36982;51.474;7.228;2023-07-16T03:05:58;3.85;;;1.58;;
50968;SDS011;36982;51.474;7.228;2023-07-16T03:08:24;5.30;;;1.98;;
50968;SDS011;36982;51.474;7.228;2023-07-16T03:10:54;3.60;;;1.62;;
50968;SDS011;36982;51.474;7.228;2023-07-16T03:13:21;4.12;;;1.60;;
50968;SDS011;36982;51.474;7.228;2023-07-16T03:15:46;4.12;;;1.73;;
50968;SDS011;36982;51.474;7.228;2023-07-16T03:18:12;4.82;;;1.73;;
50968;SDS011;36982;51.474;7.228;2023-07-16T03:20:37;4.07;;;1.73;;
50968;SDS011;36982;51.474;7.228;2023-07-16T03:23:03;2.25;;;1.40;;
50968;SDS011;36982;51.474;7.228;2023-07-16T03:25:29;5.93;;;1.48;;
50968;SDS011;36982;51.474;7.228;2023-07-16T03:27:54;2.53;;;1.50;;
50968;SDS011;36982;51.474;7.228;2023-07-16T03:30:20;5.80;;;1.60;;
50968;SDS011;36982;51.474;7.228;2023-07-16T03:32:45;4.35;;;1.70;;
50968;SDS011;36982;51.474;7.228;2023-07-16T03:35:11;4.80;;;1.65;;
50968;SDS011;36982;51.474;7.228;2023-07-16T03:37:36;5.10;;;1.67;;
50968;SDS011;36982;51.474;7.228;2023-07-16T03:40:15;5.90;;;1.67;;
50968;SDS011;36982;51.474;7.228;2023-07-16T03:42:42;3.92;;;1.60;;
50968;SDS011;36982;51.474;7.228;2023-07-16T03:45:08;6.40;;;1.60;;
50968;SDS011;36982;51.474;7.228;2023-07-16T03:47:37;3.40;;;1.60;;
50968;SDS011;36982;51.474;7.228;2023-07-16T03:50:02;2.78;;;1.62;;
50968;SDS011;36982;51.474;7.228;2023-07-16T03:52:28;4.57;;;2.20;;
50968;SDS011;36982;51.474;7.228;2023-07-16T03:54:54;4.13;;;2.00;;
50968;SDS011;36982;51.474;7.228;2023-07-16T03:57:20;3.97;;;1.80;;
50968;SDS011;36982;51.474;7.228;2023-07-16T03:59:46;5.03;;;1.90;;
50968;SDS011;36982;51.474;7.228;2023-07-16T04:02:11;5.17;;;2.00;;
50968;SDS011;36982;51.474;7.228;2023-07-16T04:04:37;3.97;;;1.80;;
50968;SDS011;36982;51.474;7.228;2023-07-16T04:07:02;3.63;;;1.60;;
50968;SDS011;36982;51.474;7.228;2023-07-16T04:09:28;3.60;;;1.67;;
50968;SDS011;36982;51.474;7.228;2023-07-16T04:11:54;5.30;;;1.90;;
50968;SDS011;36982;51.474;7.228;2023-07-16T04:14:19;4.27;;;1.73;;
50968;SDS011;36982;51.474;7.228;2023-07-16T04:16:45;4.00;;;1.87;;
50968;SDS011;36982;51.474;7.228;2023-07-16T04:19:10;3.83;;;2.10;;
50968;SDS011;36982;51.474;7.228;2023-07-16T04:21:36;4.72;;;1.90;;
50968;SDS011;36982;51.474;7.228;2023-07-16T04:24:02;5.22;;;2.08;;
50968;SDS011;36982;51.474;7.228;2023-07-16T04:26:28;3.83;;;1.97;;
50968;SDS011;36982;51.474;7.228;2023-07-16T04:28:53;5.18;;;2.17;;
50968;SDS011;36982;51.474;7.228;2023-07-16T04:31:19;5.60;;;2.58;;
50968;SDS011;36982;51.474;7.228;2023-07-16T04:33:45;5.73;;;2.20;;
50968;SDS011;36982;51.474;7.228;2023-07-16T04:36:10;3.78;;;1.87;;
50968;SDS011;36982;51.474;7.228;2023-07-16T04:38:36;4.53;;;1.62;;
50968;SDS011;36982;51.474;7.228;2023-07-16T04:41:02;4.22;;;1.58;;
50968;SDS011;36982;51.474;7.228;2023-07-16T04:43:27;3.65;;;1.90;;
50968;SDS011;36982;51.474;7.228;2023-07-16T04:45:53;6.40;;;2.08;;
50968;SDS011;36982;51.474;7.228;2023-07-16T04:48:18;5.28;;;2.28;;
50968;SDS011;36982;51.474;7.228;2023-07-16T04:50:44;4.25;;;2.10;;
50968;SDS011;36982;51.474;7.228;2023-07-16T04:53:09;7.15;;;2.47;;
50968;SDS011;36982;51.474;7.228;2023-07-16T04:55:38;4.32;;;1.83;;
50968;SDS011;36982;51.474;7.228;2023-07-16T04:58:04;5.63;;;2.30;;
50968;SDS011;36982;51.474;7.228;2023-07-16T05:00:33;3.90;;;2.20;;
50968;SDS011;36982;51.474;7.228;2023-07-16T05:02:59;4.65;;;2.10;;
50968;SDS011;36982;51.474;7.228;2023-07-16T05:05:24;8.00;;;2.40;;
50968;SDS011;36982;51.474;7.228;2023-07-16T05:07:50;4.15;;;1.85;;
50968;SDS011;36982;51.474;7.228;2023-07-16T05:10:16;5.15;;;2.22;;
50968;SDS011;36982;51.474;7.228;2023-07-16T05:12:41;5.75;;;2.10;;
50968;SDS011;36982;51.474;7.228;2023-07-16T05:15:07;4.45;;;2.05;;
50968;SDS011;36982;51.474;7.228;2023-07-16T05:17:33;4.78;;;2.30;;
50968;SDS011;36982;51.474;7.228;2023-07-16T05:19:59;3.55;;;2.00;;
50968;SDS011;36982;51.474;7.228;2023-07-16T05:22:24;4.25;;;2.17;;
50968;SDS011;36982;51.474;7.228;2023-07-16T05:24:50;4.05;;;2.12;;
50968;SDS011;36982;51.474;7.228;2023-07-16T05:27:15;5.10;;;2.00;;
50968;SDS011;36982;51.474;7.228;2023-07-16T05:29:41;8.75;;;2.62;;
50968;SDS011;36982;51.474;7.228;2023-07-16T05:32:07;4.80;;;2.22;;
50968;SDS011;36982;51.474;7.228;2023-07-16T05:34:33;4.55;;;1.98;;
50968;SDS011;36982;51.474;7.228;2023-07-16T05:36:58;5.53;;;2.33;;
50968;SDS011;36982;51.474;7.228;2023-07-16T05:39:24;5.85;;;2.35;;
50968;SDS011;36982;51.474;7.228;2023-07-16T05:41:50;5.72;;;2.25;;
50968;SDS011;36982;51.474;7.228;2023-07-16T05:44:15;5.12;;;2.03;;
50968;SDS011;36982;51.474;7.228;2023-07-16T05:46:41;6.78;;;2.10;;
50968;SDS011;36982;51.474;7.228;2023-07-16T05:49:06;5.55;;;1.95;;
50968;SDS011;36982;51.474;7.228;2023-07-16T05:51:32;6.43;;;2.15;;
50968;SDS011;36982;51.474;7.228;2023-07-16T05:53:58;3.70;;;1.80;;
50968;SDS011;36982;51.474;7.228;2023-07-16T05:56:23;7.18;;;2.20;;
50968;SDS011;36982;51.474;7.228;2023-07-16T05:58:49;7.37;;;2.75;;
50968;SDS011;36982;51.474;7.228;2023-07-16T06:01:14;5.55;;;2.58;;
50968;SDS011;36982;51.474;7.228;2023-07-16T06:03:40;6.32;;;2.30;;
50968;SDS011;36982;51.474;7.228;2023-07-16T06:06:08;5.82;;;2.50;;
50968;SDS011;36982;51.474;7.228;2023-07-16T06:08:33;4.53;;;2.30;;
50968;SDS011;36982;51.474;7.228;2023-07-16T06:10:59;3.97;;;2.25;;
50968;SDS011;36982;51.474;7.228;2023-07-16T06:13:25;10.80;;;2.50;;
50968;SDS011;36982;51.474;7.228;2023-07-16T06:15:50;5.78;;;2.62;;
50968;SDS011;36982;51.474;7.228;2023-07-16T06:18:16;4.20;;;2.10;;
50968;SDS011;36982;51.474;7.228;2023-07-16T06:20:45;6.22;;;2.50;;
50968;SDS011;36982;51.474;7.228;2023-07-16T06:23:11;3.72;;;2.30;;
50968;SDS011;36982;51.474;7.228;2023-07-16T06:25:37;6.32;;;2.58;;
50968;SDS011;36982;51.474;7.228;2023-07-16T06:28:05;5.53;;;2.30;;
50968;SDS011;36982;51.474;7.228;2023-07-16T06:30:31;5.22;;;2.53;;
50968;SDS011;36982;51.474;7.228;2023-07-16T06:32:58;6.00;;;2.75;;
50968;SDS011;36982;51.474;7.228;2023-07-16T06:35:24;7.22;;;3.03;;
50968;SDS011;36982;51.474;7.228;2023-07-16T06:37:49;5.95;;;2.92;;
50968;SDS011;36982;51.474;7.228;2023-07-16T06:40:15;4.95;;;3.12;;
50968;SDS011;36982;51.474;7.228;2023-07-16T06:42:41;9.32;;;3.70;;
50968;SDS011;36982;51.474;7.228;2023-07-16T06:45:06;6.62;;;3.35;;
50968;SDS011;36982;51.474;7.228;2023-07-16T06:47:33;7.20;;;2.95;;
50968;SDS011;36982;51.474;7.228;2023-07-16T06:49:58;7.28;;;3.20;;
50968;SDS011;36982;51.474;7.228;2023-07-16T06:52:24;4.93;;;2.75;;
50968;SDS011;36982;51.474;7.228;2023-07-16T06:54:52;4.85;;;3.12;;
50968;SDS011;36982;51.474;7.228;2023-07-16T06:57:19;6.25;;;2.92;;
50968;SDS011;36982;51.474;7.228;2023-07-16T06:59:44;6.85;;;3.50;;
50968;SDS011;36982;51.474;7.228;2023-07-16T07:02:10;6.37;;;3.47;;
50968;SDS011;36982;51.474;7.228;2023-07-16T07:04:37;6.60;;;2.85;;
50968;SDS011;36982;51.474;7.228;2023-07-16T07:07:03;4.95;;;2.90;;
50968;SDS011;36982;51.474;7.228;2023-07-16T07:09:29;8.52;;;3.28;;
50968;SDS011;36982;51.474;7.228;2023-07-16T07:11:54;6.70;;;3.10;;
50968;SDS011;36982;51.474;7.228;2023-07-16T07:14:20;5.60;;;3.03;;
50968;SDS011;36982;51.474;7.228;2023-07-16T07:16:45;8.65;;;4.35;;
50968;SDS011;36982;51.474;7.228;2023-07-16T07:19:11;8.85;;;3.90;;
50968;SDS011;36982;51.474;7.228;2023-07-16T07:21:36;7.47;;;3.60;;
50968;SDS011;36982;51.474;7.228;2023-07-16T07:24:02;8.82;;;3.80;;
50968;SDS011;36982;51.474;7.228;2023-07-16T07:26:28;5.45;;;3.00;;
50968;SDS011;36982;51.474;7.228;2023-07-16T07:28:53;9.23;;;3.65;;
50968;SDS011;36982;51.474;7.228;2023-07-16T07:31:19;4.65;;;3.10;;
50968;SDS011;36982;51.474;7.228;2023-07-16T07:33:44;5.87;;;3.70;;
50968;SDS011;36982;51.474;7.228;2023-07-16T07:36:10;6.55;;;3.28;;
50968;SDS011;36982;51.474;7.228;2023-07-16T07:38:36;6.65;;;3.78;;
50968;SDS011;36982;51.474;7.228;2023-07-16T07:41:01;8.02;;;3.50;;
50968;SDS011;36982;51.474;7.228;2023-07-16T07:43:27;8.32;;;3.75;;
50968;SDS011;36982;51.474;7.228;2023-07-16T07:45:52;6.75;;;3.62;;
50968;SDS011;36982;51.474;7.228;2023-07-16T07:48:18;8.60;;;3.75;;
50968;SDS011;36982;51.474;7.228;2023-07-16T07:50:46;7.10;;;3.45;;
50968;SDS011;36982;51.474;7.228;2023-07-16T07:53:11;8.82;;;3.28;;
50968;SDS011;36982;51.474;7.228;2023-07-16T07:55:39;9.57;;;3.33;;
50968;SDS011;36982;51.474;7.228;2023-07-16T07:58:05;6.97;;;3.15;;
50968;SDS011;36982;51.474;7.228;2023-07-16T08:00:30;8.52;;;4.25;;
50968;SDS011;36982;51.474;7.228;2023-07-16T08:02:56;5.85;;;3.60;;
50968;SDS011;36982;51.474;7.228;2023-07-16T08:05:21;8.32;;;3.87;;
50968;SDS011;36982;51.474;7.228;2023-07-16T08:07:47;6.57;;;3.40;;
50968;SDS011;36982;51.474;7.228;2023-07-16T08:10:13;5.50;;;3.28;;
50968;SDS011;36982;51.474;7.228;2023-07-16T08:12:38;6.47;;;3.62;;
50968;SDS011;36982;51.474;7.228;2023-07-16T08:15:04;7.10;;;3.97;;
50968;SDS011;36982;51.474;7.228;2023-07-16T08:17:32;7.65;;;4.10;;
50968;SDS011;36982;51.474;7.228;2023-07-16T08:19:57;6.97;;;4.00;;
50968;SDS011;36982;51.474;7.228;2023-07-16T08:22:23;7.00;;;3.55;;
50968;SDS011;36982;51.474;7.228;2023-07-16T08:24:50;7.82;;;4.07;;
50968;SDS011;36982;51.474;7.228;2023-07-16T08:27:16;4.65;;;3.15;;
50968;SDS011;36982;51.474;7.228;2023-07-16T08:29:43;6.80;;;3.90;;
50968;SDS011;36982;51.474;7.228;2023-07-16T08:32:09;6.05;;;4.25;;
50968;SDS011;36982;51.474;7.228;2023-07-16T08:34:35;10.32;;;3.65;;
50968;SDS011;36982;51.474;7.228;2023-07-16T08:37:00;6.25;;;3.53;;
50968;SDS011;36982;51.474;7.228;2023-07-16T08:39:26;6.72;;;3.25;;
50968;SDS011;36982;51.474;7.228;2023-07-16T08:41:51;8.52;;;4.12;;
50968;SDS011;36982;51.474;7.228;2023-07-16T08:44:18;7.62;;;3.30;;
50968;SDS011;36982;51.474;7.228;2023-07-16T08:46:44;5.70;;;3.37;;
50968;SDS011;36982;51.474;7.228;2023-07-16T08:49:10;6.82;;;3.70;;
50968;SDS011;36982;51.474;7.228;2023-07-16T08:51:37;6.82;;;3.45;;
50968;SDS011;36982;51.474;7.228;2023-07-16T08:54:04;8.35;;;3.70;;
50968;SDS011;36982;51.474;7.228;2023-07-16T08:56:29;5.10;;;3.17;;
50968;SDS011;36982;51.474;7.228;2023-07-16T08:58:55;6.68;;;3.87;;
50968;SDS011;36982;51.474;7.228;2023-07-16T09:01:21;6.68;;;3.33;;
50968;SDS011;36982;51.474;7.228;2023-07-16T09:03:47;5.82;;;3.47;;
50968;SDS011;36982;51.474;7.228;2023-07-16T09:06:13;6.65;;;3.20;;
50968;SDS011;36982;51.474;7.228;2023-07-16T09:08:39;6.28;;;3.55;;
50968;SDS011;36982;51.474;7.228;2023-07-16T09:11:04;4.72;;;3.00;;
50968;SDS011;36982;51.474;7.228;2023-07-16T09:13:30;5.62;;;3.75;;
50968;SDS011;36982;51.474;7.228;2023-07-16T09:15:56;6.90;;;2.97;;
50968;SDS011;36982;51.474;7.228;2023-07-16T09:18:27;5.50;;;2.83;;
50968;SDS011;36982;51.474;7.228;2023-07-16T09:20:56;5.78;;;3.78;;
50968;SDS011;36982;51.474;7.228;2023-07-16T09:23:24;3.95;;;2.85;;
50968;SDS011;36982;51.474;7.228;2023-07-16T09:25:51;6.32;;;2.90;;
50968;SDS011;36982;51.474;7.228;2023-07-16T09:28:18;6.10;;;3.22;;
50968;SDS011;36982;51.474;7.228;2023-07-16T09:30:44;6.68;;;3.70;;
50968;SDS011;36982;51.474;7.228;2023-07-16T09:33:10;4.72;;;2.53;;
50968;SDS011;36982;51.474;7.228;2023-07-16T09:35:38;5.45;;;2.92;;
50968;SDS011;36982;51.474;7.228;2023-07-16T09:38:03;7.22;;;3.35;;
50968;SDS011;36982;51.474;7.228;2023-07-16T09:40:29;6.20;;;3.20;;
50968;SDS011;36982;51.474;7.228;2023-07-16T09:42:55;5.12;;;3.10;;
50968;SDS011;36982;51.474;7.228;2023-07-16T09:45:21;6.05;;;3.92;;
50968;SDS011;36982;51.474;7.228;2023-07-16T09:47:47;3.97;;;3.05;;
50968;SDS011;36982;51.474;7.228;2023-07-16T09:50:13;5.20;;;3.25;;
50968;SDS011;36982;51.474;7.228;2023-07-16T09:52:39;4.85;;;3.00;;
50968;SDS011;36982;51.474;7.228;2023-07-16T09:55:05;6.22;;;3.00;;
50968;SDS011;36982;51.474;7.228;2023-07-16T09:57:37;4.85;;;3.33;;
50968;SDS011;36982;51.474;7.228;2023-07-16T10:00:06;6.05;;;2.87;;
50968;SDS011;36982;51.474;7.228;2023-07-16T10:02:37;5.82;;;2.95;;
50968;SDS011;36982;51.474;7.228;2023-07-16T10:05:16;4.97;;;3.12;;
50968;SDS011;36982;51.474;7.228;2023-07-16T10:07:49;5.93;;;3.15;;
50968;SDS011;36982;51.474;7.228;2023-07-16T10:10:16;5.10;;;2.70;;
50968;SDS011;36982;51.474;7.228;2023-07-16T10:12:42;4.07;;;2.80;;
50968;SDS011;36982;51.474;7.228;2023-07-16T10:15:24;3.17;;;2.70;;
50968;SDS011;36982;51.474;7.228;2023-07-16T10:17:54;4.32;;;3.00;;
50968;SDS011;36982;51.474;7.228;2023-07-16T10:22:58;6.20;;;2.90;;
50968;SDS011;36982;51.474;7.228;2023-07-16T10:25:35;6.07;;;3.22;;
50968;SDS011;36982;51.474;7.228;2023-07-16T10:28:01;5.57;;;3.55;;
50968;SDS011;36982;51.474;7.228;2023-07-16T10:30:26;5.75;;;3.20;;
50968;SDS011;36982;51.474;7.228;2023-07-16T10:32:52;8.15;;;3.72;;
50968;SDS011;36982;51.474;7.228;2023-07-16T10:35:18;5.18;;;3.53;;
50968;SDS011;36982;51.474;7.228;2023-07-16T10:37:44;5.28;;;3.20;;
50968;SDS011;36982;51.474;7.228;2023-07-16T10:40:10;6.95;;;3.30;;
50968;SDS011;36982;51.474;7.228;2023-07-16T10:42:37;5.70;;;3.42;;
50968;SDS011;36982;51.474;7.228;2023-07-16T10:45:05;6.12;;;4.00;;
50968;SDS011;36982;51.474;7.228;2023-07-16T10:49:58;4.82;;;2.92;;
50968;SDS011;36982;51.474;7.228;2023-07-16T10:52:25;5.32;;;3.33;;
50968;SDS011;36982;51.474;7.228;2023-07-16T10:54:51;5.43;;;3.83;;
50968;SDS011;36982;51.474;7.228;2023-07-16T10:57:22;6.18;;;3.10;;
50968;SDS011;36982;51.474;7.228;2023-07-16T10:59:53;3.42;;;2.60;;
50968;SDS011;36982;51.474;7.228;2023-07-16T11:02:20;4.95;;;2.95;;
50968;SDS011;36982;51.474;7.228;2023-07-16T11:04:47;5.03;;;3.03;;
50968;SDS011;36982;51.474;7.228;2023-07-16T11:07:14;7.32;;;2.80;;
50968;SDS011;36982;51.474;7.228;2023-07-16T11:12:17;4.37;;;2.33;;
50968;SDS011;36982;51.474;7.228;2023-07-16T11:14:48;5.10;;;2.85;;
50968;SDS011;36982;51.474;7.228;2023-07-16T11:17:15;5.70;;;2.75;;
50968;SDS011;36982;51.474;7.228;2023-07-16T11:19:44;4.35;;;2.80;;
50968;SDS011;36982;51.474;7.228;2023-07-16T11:22:11;4.37;;;2.78;;
50968;SDS011;36982;51.474;7.228;2023-07-16T11:24:44;5.55;;;2.85;;
50968;SDS011;36982;51.474;7.228;2023-07-16T11:27:15;3.83;;;2.53;;
50968;SDS011;36982;51.474;7.228;2023-07-16T11:35:18;6.25;;;2.90;;
50968;SDS011;36982;51.474;7.228;2023-07-16T11:37:45;3.65;;;2.62;;
50968;SDS011;36982;51.474;7.228;2023-07-16T11:40:16;3.85;;;2.70;;
50968;SDS011;36982;51.474;7.228;2023-07-16T11:42:43;4.68;;;2.87;;
50968;SDS011;36982;51.474;7.228;2023-07-16T11:45:16;4.85;;;3.50;;
50968;SDS011;36982;51.474;7.228;2023-07-16T11:47:51;4.70;;;3.10;;
50968;SDS011;36982;51.474;7.228;2023-07-16T11:50:17;6.03;;;2.83;;
50968;SDS011;36982;51.474;7.228;2023-07-16T11:52:51;6.90;;;2.80;;
50968;SDS011;36982;51.474;7.228;2023-07-16T11:55:18;4.40;;;3.05;;
50968;SDS011;36982;51.474;7.228;2023-07-16T11:57:44;5.25;;;2.90;;
50968;SDS011;36982;51.474;7.228;2023-07-16T12:00:09;5.20;;;2.60;;
50968;SDS011;36982;51.474;7.228;2023-07-16T12:02:36;5.43;;;2.92;;
50968;SDS011;36982;51.474;7.228;2023-07-16T12:05:02;5.22;;;3.17;;
50968;SDS011;36982;51.474;7.228;2023-07-16T12:07:32;7.30;;;3.45;;
50968;SDS011;36982;51.474;7.228;2023-07-16T12:09:58;4.90;;;3.10;;
50968;SDS011;36982;51.474;7.228;2023-07-16T12:12:23;6.10;;;2.70;;
50968;SDS011;36982;51.474;7.228;2023-07-16T12:14:49;5.90;;;3.53;;
50968;SDS011;36982;51.474;7.228;2023-07-16T12:17:14;5.85;;;2.60;;
50968;SDS011;36982;51.474;7.228;2023-07-16T12:19:40;5.75;;;2.62;;
50968;SDS011;36982;51.474;7.228;2023-07-16T12:22:05;4.15;;;2.60;;
50968;SDS011;36982;51.474;7.228;2023-07-16T12:24:31;5.05;;;2.83;;
50968;SDS011;36982;51.474;7.228;2023-07-16T12:26:57;7.45;;;3.47;;
50968;SDS011;36982;51.474;7.228;2023-07-16T12:29:22;4.07;;;2.97;;
50968;SDS011;36982;51.474;7.228;2023-07-16T12:31:49;4.10;;;2.50;;
50968;SDS011;36982;51.474;7.228;2023-07-16T12:37:12;5.82;;;2.97;;
50968;SDS011;36982;51.474;7.228;2023-07-16T12:39:37;5.70;;;3.17;;
50968;SDS011;36982;51.474;7.228;2023-07-16T12:42:03;8.45;;;3.03;;
50968;SDS011;36982;51.474;7.228;2023-07-16T12:44:29;6.53;;;4.07;;
50968;SDS011;36982;51.474;7.228;2023-07-16T12:46:55;5.15;;;3.08;;
50968;SDS011;36982;51.474;7.228;2023-07-16T12:49:20;6.22;;;3.05;;
50968;SDS011;36982;51.474;7.228;2023-07-16T12:51:46;5.82;;;3.10;;
50968;SDS011;36982;51.474;7.228;2023-07-16T12:54:11;5.22;;;2.87;;
50968;SDS011;36982;51.474;7.228;2023-07-16T12:56:37;7.90;;;3.08;;
50968;SDS011;36982;51.474;7.228;2023-07-16T12:59:03;6.05;;;3.53;;
50968;SDS011;36982;51.474;7.228;2023-07-16T13:01:29;7.50;;;4.65;;
50968;SDS011;36982;51.474;7.228;2023-07-16T13:03:55;3.95;;;2.85;;
50968;SDS011;36982;51.474;7.228;2023-07-16T13:06:21;6.53;;;2.97;;
50968;SDS011;36982;51.474;7.228;2023-07-16T13:08:46;6.22;;;2.62;;
50968;SDS011;36982;51.474;7.228;2023-07-16T13:11:12;4.72;;;2.40;;
50968;SDS011;36982;51.474;7.228;2023-07-16T13:13:38;6.35;;;2.47;;
50968;SDS011;36982;51.474;7.228;2023-07-16T13:16:03;3.87;;;2.40;;
50968;SDS011;36982;51.474;7.228;2023-07-16T13:18:29;8.50;;;3.75;;
50968;SDS011;36982;51.474;7.228;2023-07-16T13:20:55;6.50;;;3.20;;
50968;SDS011;36982;51.474;7.228;2023-07-16T13:23:21;6.32;;;3.97;;
50968;SDS011;36982;51.474;7.228;2023-07-16T13:25:46;4.53;;;2.40;;
50968;SDS011;36982;51.474;7.228;2023-07-16T13:28:16;5.05;;;2.65;;
50968;SDS011;36982;51.474;7.228;2023-07-16T13:30:41;6.32;;;2.72;;
50968;SDS011;36982;51.474;7.228;2023-07-16T13:33:07;4.87;;;2.75;;
50968;SDS011;36982;51.474;7.228;2023-07-16T13:35:32;5.60;;;3.03;;
50968;SDS011;36982;51.474;7.228;2023-07-16T13:37:58;4.22;;;3.10;;
50968;SDS011;36982;51.474;7.228;2023-07-16T13:40:24;6.75;;;2.80;;
50968;SDS011;36982;51.474;7.228;2023-07-16T13:42:49;3.85;;;2.50;;
50968;SDS011;36982;51.474;7.228;2023-07-16T13:45:15;6.30;;;2.95;;
50968;SDS011;36982;51.474;7.228;2023-07-16T13:47:40;5.40;;;2.83;;
50968;SDS011;36982;51.474;7.228;2023-07-16T13:50:07;4.50;;;2.60;;
50968;SDS011;36982;51.474;7.228;2023-07-16T13:52:33;5.35;;;2.67;;
50968;SDS011;36982;51.474;7.228;2023-07-16T13:54:59;4.50;;;3.55;;
50968;SDS011;36982;51.474;7.228;2023-07-16T13:57:24;4.72;;;3.10;;
50968;SDS011;36982;51.474;7.228;2023-07-16T13:59:50;5.00;;;3.10;;
50968;SDS011;36982;51.474;7.228;2023-07-16T14:02:16;4.40;;;2.85;;
50968;SDS011;36982;51.474;7.228;2023-07-16T14:04:41;5.22;;;3.00;;
50968;SDS011;36982;51.474;7.228;2023-07-16T14:07:07;4.18;;;3.08;;
50968;SDS011;36982;51.474;7.228;2023-07-16T14:09:32;5.25;;;3.42;;
50968;SDS011;36982;51.474;7.228;2023-07-16T14:11:58;5.25;;;3.90;;
50968;SDS011;36982;51.474;7.228;2023-07-16T14:14:24;7.12;;;3.00;;
50968;SDS011;36982;51.474;7.228;2023-07-16T14:16:49;7.57;;;4.40;;
50968;SDS011;36982;51.474;7.228;2023-07-16T14:19:15;5.28;;;2.90;;
50968;SDS011;36982;51.474;7.228;2023-07-16T14:21:40;5.72;;;3.40;;
50968;SDS011;36982;51.474;7.228;2023-07-16T14:24:06;4.90;;;3.40;;
50968;SDS011;36982;51.474;7.228;2023-07-16T14:26:32;6.43;;;3.37;;
50968;SDS011;36982;51.474;7.228;2023-07-16T14:28:58;4.87;;;3.03;;
50968;SDS011;36982;51.474;7.228;2023-07-16T14:31:24;3.83;;;3.12;;
50968;SDS011;36982;51.474;7.228;2023-07-16T14:33:50;5.28;;;3.35;;
50968;SDS011;36982;51.474;7.228;2023-07-16T14:36:15;7.90;;;4.12;;
50968;SDS011;36982;51.474;7.228;2023-07-16T14:38:41;6.47;;;4.28;;
50968;SDS011;36982;51.474;7.228;2023-07-16T14:41:07;7.00;;;4.05;;
50968;SDS011;36982;51.474;7.228;2023-07-16T14:43:33;6.37;;;3.35;;
50968;SDS011;36982;51.474;7.228;2023-07-16T14:45:59;6.72;;;3.40;;
50968;SDS011;36982;51.474;7.228;2023-07-16T14:48:25;4.90;;;3.62;;
50968;SDS011;36982;51.474;7.228;2023-07-16T14:50:52;3.28;;;2.85;;
50968;SDS011;36982;51.474;7.228;2023-07-16T14:53:18;5.15;;;2.85;;
50968;SDS011;36982;51.474;7.228;2023-07-16T14:55:48;4.28;;;2.60;;
50968;SDS011;36982;51.474;7.228;2023-07-16T14:58:18;5.18;;;3.33;;
50968;SDS011;36982;51.474;7.228;2023-07-16T15:00:45;4.00;;;3.12;;
50968;SDS011;36982;51.474;7.228;2023-07-16T15:03:11;7.78;;;3.35;;
50968;SDS011;36982;51.474;7.228;2023-07-16T15:05:37;5.55;;;3.30;;
50968;SDS011;36982;51.474;7.228;2023-07-16T15:08:03;4.72;;;2.53;;
50968;SDS011;36982;51.474;7.228;2023-07-16T15:10:29;4.22;;;2.75;;